Latest Weather Observations for St Kilda Harbour RMYS

IDV60801

Issued at 7:32 am EST Thursday 27 April 2017 (issued every 30 minutes, with the page automatically refreshed every 10 minutes)

About weather observations | Map of weather stations | Latest weather observations for VIC | Other Formats
Station Details ID: 086220 Name: ST KILDA HARBOUR - RMYS Lat: -37.86 Lon: 144.96 Height: 6.4 m
Data from the previous 72 hours. | See also: Recent months for locations in Victoria
Date/Time
EST
Temp
°C
App
Temp
°C
Dew
Point
°C
Rel
Hum
%
Delta-T
°C
Wind Press
QNH
hPa
Press
MSL
hPa
Rain since
9am
mm
Dir  Spd
km/h
Gust
km/h
Spd
kts
Gust
kts
27/07:30am - - - - - SW 28 37 15 20 - - -
27/07:00am - - - - - WNW 11 26 6 14 - - -
27/06:30am - - - - - WSW 22 35 12 19 - - -
27/06:00am - - - - - W 20 28 11 15 - - -
27/05:46am - - - - - WSW 28 43 15 23 - - -
27/05:30am - - - - - S 19 32 10 17 - - -
27/05:00am - - - - - SSW 28 39 15 21 - - -
27/04:30am - - - - - S 30 37 16 20 - - -
27/04:00am - - - - - S 39 46 21 25 - - -
27/03:30am - - - - - S 37 48 20 26 - - -
27/03:00am - - - - - S 41 48 22 26 - - -
27/02:30am - - - - - S 43 48 23 26 - - -
27/02:03am - - - - - SSW 28 46 15 25 - - -
27/02:00am - - - - - SSW 26 48 14 26 - - -
27/01:49am - - - - - SSW 35 48 19 26 - - -
27/01:30am - - - - - SE 26 41 14 22 - - -
27/01:25am - - - - - SSE 33 46 18 25 - - -
27/01:07am - - - - - SSW 35 48 19 26 - - -
27/01:00am - - - - - SSW 37 44 20 24 - - -
27/12:30am - - - - - SSW 32 44 17 24 - - -
27/12:00am - - - - - SW 32 48 17 26 - - -
 
Date/Time
EST
Temp
°C
App
Temp
°C
Dew
Point
°C
Rel
Hum
%
Delta-T
°C
Wind Press
QNH
hPa
Press
MSL
hPa
Rain since
9am
mm
Dir  Spd
km/h
Gust
km/h
Spd
kts
Gust
kts
26/11:30pm - - - - - WSW 26 35 14 19 - - -
26/11:00pm - - - - - SW 35 48 19 26 - - -
26/10:59pm - - - - - SW 37 48 20 26 - - -
26/10:49pm - - - - - SW 33 46 18 25 - - -
26/10:30pm - - - - - SW 39 48 21 26 - - -
26/10:28pm - - - - - SSW 39 48 21 26 - - -
26/10:05pm - - - - - SSW 37 48 20 26 - - -
26/10:00pm - - - - - SW 37 48 20 26 - - -
26/09:30pm - - - - - WSW 37 48 20 26 - - -
26/09:03pm - - - - - SW 39 48 21 26 - - -
26/09:00pm - - - - - SW 39 48 21 26 - - -
26/08:44pm - - - - - SW 39 46 21 25 - - -
26/08:30pm - - - - - WSW 41 48 22 26 - - -
26/08:24pm - - - - - SW 41 48 22 26 - - -
26/08:00pm - - - - - SW 24 48 13 26 - - -
26/07:30pm - - - - - SSW 37 48 20 26 - - -
26/07:12pm - - - - - SW 33 48 18 26 - - -
26/07:00pm - - - - - WSW 43 48 23 26 - - -
26/06:47pm - - - - - SW 41 48 22 26 - - -
26/06:30pm - - - - - SSW 35 48 19 26 - - -
26/06:00pm - - - - - SSW 24 48 13 26 - - -
26/05:30pm - - - - - SSW 39 48 21 26 - - -
26/05:27pm - - - - - SSW 39 48 21 26 - - -
26/05:00pm - - - - - SW 35 48 19 26 - - -
26/04:39pm - - - - - SW 30 48 16 26 - - -
26/04:30pm - - - - - SSW 35 48 19 26 - - -
26/04:00pm - - - - - SW 41 48 22 26 - - -
26/03:30pm - - - - - SW 13 48 7 26 - - -
26/03:00pm - - - - - SW 33 48 18 26 - - -
26/02:39pm - - - - - SSW 30 48 16 26 - - -
26/02:30pm - - - - - SSW 33 48 18 26 - - -
26/02:01pm - - - - - SSW 28 48 15 26 - - -
26/02:00pm - - - - - SSW 26 48 14 26 - - -
26/01:30pm - - - - - SSW 22 48 12 26 - - -
26/01:02pm - - - - - SSW 28 48 15 26 - - -
26/01:00pm - - - - - SSW 24 48 13 26 - - -
26/12:35pm - - - - - SSW 30 48 16 26 - - -
26/12:30pm - - - - - SSW 39 48 21 26 - - -
26/12:19pm - - - - - SSW 15 48 8 26 - - -
26/12:00pm - - - - - SSW 24 48 13 26 - - -
26/11:55am - - - - - SSW 30 48 16 26 - - -
26/11:30am - - - - - SSW 33 48 18 26 - - -
26/11:22am - - - - - S 28 48 15 26 - - -
26/11:00am - - - - - S 22 48 12 26 - - -
26/10:30am - - - - - SSW 26 48 14 26 - - -
26/10:08am - - - - - SSW 28 48 15 26 - - -
26/10:00am - - - - - SSW 24 48 13 26 - - -
26/09:30am - - - - - SSW 28 48 15 26 - - -
26/09:08am - - - - - SSW 28 48 15 26 - - -
26/09:00am - - - - - SSW 17 48 9 26 - - -
26/08:30am - - - - - SSW 19 48 10 26 - - -
26/08:00am - - - - - WSW 28 48 15 26 - - -
26/07:57am - - - - - WSW 28 48 15 26 - - -
26/07:30am - - - - - WSW 24 35 13 19 - - -
26/07:07am - - - - - SSW 30 48 16 26 - - -
26/07:02am - - - - - WSW 35 48 19 26 - - -
26/07:00am - - - - - WSW 35 48 19 26 - - -
26/06:30am - - - - - SW 24 35 13 19 - - -
26/06:00am - - - - - W 30 37 16 20 - - -
26/05:30am - - - - - WSW 33 46 18 25 - - -
26/05:00am - - - - - SW 35 48 19 26 - - -
26/04:48am - - - - - SW 28 48 15 26 - - -
26/04:30am - - - - - SW 17 46 9 25 - - -
26/04:00am - - - - - SW 17 48 9 26 - - -
26/03:43am - - - - - WSW 37 48 20 26 - - -
26/03:30am - - - - - W 32 48 17 26 - - -
26/03:25am - - - - - NW 20 48 11 26 - - -
26/03:23am - - - - - NNW 19 48 10 26 - - -
26/03:00am - - - - - NNW 17 22 9 12 - - -
26/02:30am - - - - - NNW 19 22 10 12 - - -
26/02:00am - - - - - NNW 17 20 9 11 - - -
26/01:30am - - - - - NNW 13 19 7 10 - - -
26/01:00am - - - - - N 15 19 8 10 - - -
26/12:30am - - - - - NNW 20 30 11 16 - - -
26/12:00am - - - - - NNW 13 17 7 9 - - -
 
Date/Time
EST
Temp
°C
App
Temp
°C
Dew
Point
°C
Rel
Hum
%
Delta-T
°C
Wind Press
QNH
hPa
Press
MSL
hPa
Rain since
9am
mm
Dir  Spd
km/h
Gust
km/h
Spd
kts
Gust
kts
25/11:30pm - - - - - NNW 13 20 7 11 - - -
25/11:00pm - - - - - NW 20 28 11 15 - - -
25/10:30pm - - - - - NW 20 26 11 14 - - -
25/10:00pm - - - - - NW 22 30 12 16 - - -
25/09:30pm - - - - - WNW 39 46 21 25 - - -
25/09:14pm - - - - - N 19 46 10 25 - - -
25/09:00pm - - - - - NNE 17 22 9 12 - - -
25/08:30pm - - - - - NNE 15 20 8 11 - - -
25/08:00pm - - - - - NNE 11 15 6 8 - - -
25/07:30pm - - - - - NNE 11 19 6 10 - - -
25/07:00pm - - - - - NE 11 13 6 7 - - -
25/06:30pm - - - - - NE 6 7 3 4 - - -
25/06:00pm - - - - - ENE 6 7 3 4 - - -
25/05:30pm - - - - - NE 4 6 2 3 - - -
25/05:00pm - - - - - ESE 2 4 1 2 - - -
25/04:30pm - - - - - SSE 7 11 4 6 - - -
25/04:00pm - - - - - SSW 11 13 6 7 - - -
25/03:30pm - - - - - SSW 9 17 5 9 - - -
25/03:00pm - - - - - SSW 15 19 8 10 - - -
25/02:30pm - - - - - SSW 22 24 12 13 - - -
25/02:00pm - - - - - SSW 22 28 12 15 - - -
25/01:30pm - - - - - SSW 33 39 18 21 - - -
25/01:00pm - - - - - SW 37 43 20 23 - - -
25/12:30pm - - - - - SW 28 33 15 18 - - -
25/12:00pm - - - - - SW 33 39 18 21 - - -
25/11:30am - - - - - WSW 28 35 15 19 - - -
25/11:00am - - - - - WSW 32 37 17 20 - - -
25/10:30am - - - - - WSW 24 30 13 16 - - -
25/10:00am - - - - - WSW 26 30 14 16 - - -
25/09:30am - - - - - W 30 35 16 19 - - -
25/09:00am - - - - - W 30 37 16 20 - - -
25/08:30am - - - - - W 32 39 17 21 - - -
25/08:00am - - - - - W 32 39 17 21 - - -
25/07:43am - - - - - WNW 20 39 11 21 - - -
25/07:30am - - - - - NNW 9 15 5 8 - - -
25/07:00am - - - - - N 11 17 6 9 - - -
25/06:30am - - - - - N 9 13 5 7 - - -
25/06:00am - - - - - N 15 22 8 12 - - -
25/05:30am - - - - - N 17 24 9 13 - - -
25/05:00am - - - - - N 17 24 9 13 - - -
25/04:30am - - - - - NNE 15 19 8 10 - - -
25/04:00am - - - - - NNE 13 19 7 10 - - -
25/03:30am - - - - - NNE 11 15 6 8 - - -
25/03:00am - - - - - N 6 9 3 5 - - -
25/02:30am - - - - - N 9 13 5 7 - - -
25/02:00am - - - - - WNW 7 11 4 6 - - -
25/01:30am - - - - - NNE 7 11 4 6 - - -
25/01:00am - - - - - ENE 6 6 3 3 - - -
25/12:30am - - - - - WNW 9 13 5 7 - - -
25/12:00am - - - - - W 13 20 7 11 - - -
 
Date/Time
EST
Temp
°C
App
Temp
°C
Dew
Point
°C
Rel
Hum
%
Delta-T
°C
Wind Press
QNH
hPa
Press
MSL
hPa
Rain since
9am
mm
Dir  Spd
km/h
Gust
km/h
Spd
kts
Gust
kts
24/11:30pm - - - - - WSW 11 17 6 9 - - -
24/11:00pm - - - - - SSW 2 4 1 2 - - -
24/10:30pm - - - - - N 6 9 3 5 - - -
24/10:00pm - - - - - SE 11 17 6 9 - - -
24/09:30pm - - - - - SSE 19 22 10 12 - - -
24/09:00pm - - - - - S 24 28 13 15 - - -
24/08:30pm - - - - - SSW 17 22 9 12 - - -
24/08:00pm - - - - - ENE 4 6 2 3 - - -
24/07:30pm - - - - - N 7 9 4 5 - - -
24/07:00pm - - - - - NE 9 11 5 6 - - -
24/06:30pm - - - - - NE 7 11 4 6 - - -
24/06:00pm - - - - - NNE 9 13 5 7 - - -
24/05:30pm - - - - - N 15 26 8 14 - - -
24/05:00pm - - - - - N 15 24 8 13 - - -
24/04:30pm - - - - - N 15 20 8 11 - - -
24/04:00pm - - - - - NNE 15 20 8 11 - - -
24/03:30pm - - - - - N 15 24 8 13 - - -
24/03:00pm - - - - - N 15 24 8 13 - - -
24/02:30pm - - - - - N 11 17 6 9 - - -
24/02:00pm - - - - - NNW 15 22 8 12 - - -
24/01:30pm - - - - - N 13 22 7 12 - - -
24/01:00pm - - - - - N 13 22 7 12 - - -
24/12:30pm - - - - - NNE 6 9 3 5 - - -
24/12:00pm - - - - - NNE 7 13 4 7 - - -
24/11:30am - - - - - NNE 9 15 5 8 - - -
24/11:00am - - - - - NNE 13 20 7 11 - - -
24/10:30am - - - - - ENE 7 13 4 7 - - -
24/10:00am - - - - - ENE 6 9 3 5 - - -
24/09:30am - - - - - NE 9 13 5 7 - - -
24/09:00am - - - - - NE 9 13 5 7 - - -
24/08:30am - - - - - NNE 9 13 5 7 - - -
24/08:00am - - - - - N 7 13 4 7 - - -

Other Formats:

Comma delimited format used in spreadsheet applications
http://www.bom.gov.au/fwo/IDV60801/IDV60801.95864.axf

JavaScript Object Notation format (JSON) in row-major order
http://www.bom.gov.au/fwo/IDV60801/IDV60801.95864.json